sensor_id;sensor_type;location;lat;lon;timestamp;temperature;humidity
10388;DHT22;5240;51.128;4.566;2023-04-24T00:12:51;9.70;99.90
10388;DHT22;5240;51.128;4.566;2023-04-24T00:17:45;9.80;99.90
10388;DHT22;5240;51.128;4.566;2023-04-24T00:22:40;9.80;99.90
10388;DHT22;5240;51.128;4.566;2023-04-24T00:27:35;9.80;99.90
10388;DHT22;5240;51.128;4.566;2023-04-24T00:32:32;9.80;99.90
10388;DHT22;5240;51.128;4.566;2023-04-24T00:37:26;9.90;99.90
10388;DHT22;5240;51.128;4.566;2023-04-24T00:39:53;9.90;99.90
10388;DHT22;5240;51.128;4.566;2023-04-24T00:42:20;9.90;99.90
10388;DHT22;5240;51.128;4.566;2023-04-24T00:47:16;9.80;99.90
10388;DHT22;5240;51.128;4.566;2023-04-24T00:52:10;9.90;99.90
10388;DHT22;5240;51.128;4.566;2023-04-24T00:54:38;9.90;99.90
10388;DHT22;5240;51.128;4.566;2023-04-24T00:57:05;10.00;99.90
10388;DHT22;5240;51.128;4.566;2023-04-24T00:59:32;10.00;99.90
10388;DHT22;5240;51.128;4.566;2023-04-24T01:04:28;9.90;99.90
10388;DHT22;5240;51.128;4.566;2023-04-24T01:06:56;10.00;99.90
10388;DHT22;5240;51.128;4.566;2023-04-24T01:09:24;10.00;99.90
10388;DHT22;5240;51.128;4.566;2023-04-24T01:11:51;10.00;99.90
10388;DHT22;5240;51.128;4.566;2023-04-24T01:16:46;9.80;99.90
10388;DHT22;5240;51.128;4.566;2023-04-24T01:24:12;9.70;99.90
10388;DHT22;5240;51.128;4.566;2023-04-24T01:31:34;9.70;99.90
10388;DHT22;5240;51.128;4.566;2023-04-24T01:34:02;9.80;99.90
10388;DHT22;5240;51.128;4.566;2023-04-24T01:38:57;9.70;99.90
10388;DHT22;5240;51.128;4.566;2023-04-24T01:56:10;9.60;99.90
10388;DHT22;5240;51.128;4.566;2023-04-24T01:58:39;9.70;99.90
10388;DHT22;5240;51.128;4.566;2023-04-24T02:01:07;9.70;99.90
10388;DHT22;5240;51.128;4.566;2023-04-24T02:03:33;9.70;99.90
10388;DHT22;5240;51.128;4.566;2023-04-24T02:08:28;9.60;99.90
10388;DHT22;5240;51.128;4.566;2023-04-24T02:13:22;9.60;99.90
10388;DHT22;5240;51.128;4.566;2023-04-24T02:15:50;9.70;99.90
10388;DHT22;5240;51.128;4.566;2023-04-24T02:18:17;9.70;99.90
10388;DHT22;5240;51.128;4.566;2023-04-24T02:20:45;9.70;99.90
10388;DHT22;5240;51.128;4.566;2023-04-24T02:25:40;9.60;99.90
10388;DHT22;5240;51.128;4.566;2023-04-24T02:28:07;9.70;99.90
10388;DHT22;5240;51.128;4.566;2023-04-24T02:30:34;9.70;99.90
10388;DHT22;5240;51.128;4.566;2023-04-24T02:33:02;9.60;99.90
10388;DHT22;5240;51.128;4.566;2023-04-24T02:35:30;9.60;99.90
10388;DHT22;5240;51.128;4.566;2023-04-24T02:37:57;9.60;99.90
10388;DHT22;5240;51.128;4.566;2023-04-24T02:40:24;9.60;99.90
10388;DHT22;5240;51.128;4.566;2023-04-24T02:42:51;9.60;99.90
10388;DHT22;5240;51.128;4.566;2023-04-24T02:45:18;9.50;99.90
10388;DHT22;5240;51.128;4.566;2023-04-24T02:50:13;9.30;99.90
10388;DHT22;5240;51.128;4.566;2023-04-24T02:52:40;9.40;99.90
10388;DHT22;5240;51.128;4.566;2023-04-24T02:55:08;9.40;99.90
10388;DHT22;5240;51.128;4.566;2023-04-24T06:14:33;8.30;99.90
10388;DHT22;5240;51.128;4.566;2023-04-24T06:17:02;8.50;99.90
10388;DHT22;5240;51.128;4.566;2023-04-24T06:21:59;8.50;99.90
10388;DHT22;5240;51.128;4.566;2023-04-24T06:26:57;8.50;99.90
10388;DHT22;5240;51.128;4.566;2023-04-24T06:29:25;8.60;99.90
10388;DHT22;5240;51.128;4.566;2023-04-24T06:31:56;8.70;99.90
10388;DHT22;5240;51.128;4.566;2023-04-24T06:39:23;8.60;99.90
10388;DHT22;5240;51.128;4.566;2023-04-24T06:41:50;8.70;99.90
10388;DHT22;5240;51.128;4.566;2023-04-24T06:44:17;8.80;99.90
10388;DHT22;5240;51.128;4.566;2023-04-24T06:46:44;9.20;99.90
10388;DHT22;5240;51.128;4.566;2023-04-24T06:56:38;8.60;99.90
10388;DHT22;5240;51.128;4.566;2023-04-24T06:59:05;8.70;99.90
10388;DHT22;5240;51.128;4.566;2023-04-24T07:01:32;8.80;99.90
10388;DHT22;5240;51.128;4.566;2023-04-24T07:03:59;8.80;99.90
10388;DHT22;5240;51.128;4.566;2023-04-24T07:06:26;8.80;99.90
10388;DHT22;5240;51.128;4.566;2023-04-24T07:31:08;8.80;99.90
10388;DHT22;5240;51.128;4.566;2023-04-24T07:38:41;9.00;99.90
10388;DHT22;5240;51.128;4.566;2023-04-24T07:41:09;9.10;99.90
10388;DHT22;5240;51.128;4.566;2023-04-24T07:43:37;9.20;99.90
10388;DHT22;5240;51.128;4.566;2023-04-24T12:08:29;19.90;99.90
10388;DHT22;5240;51.128;4.566;2023-04-24T12:11:01;20.00;99.90
10388;DHT22;5240;51.128;4.566;2023-04-24T12:13:29;19.80;99.90
10388;DHT22;5240;51.128;4.566;2023-04-24T12:16:07;18.30;99.90
10388;DHT22;5240;51.128;4.566;2023-04-24T12:18:42;17.20;99.90
10388;DHT22;5240;51.128;4.566;2023-04-24T12:21:18;15.90;99.90
10388;DHT22;5240;51.128;4.566;2023-04-24T12:23:45;16.00;99.90
10388;DHT22;5240;51.128;4.566;2023-04-24T12:26:15;15.60;99.90
10388;DHT22;5240;51.128;4.566;2023-04-24T12:28:45;14.80;99.90
10388;DHT22;5240;51.128;4.566;2023-04-24T12:31:12;14.40;99.90
10388;DHT22;5240;51.128;4.566;2023-04-24T12:33:42;14.30;99.90
10388;DHT22;5240;51.128;4.566;2023-04-24T12:36:13;14.50;99.90
10388;DHT22;5240;51.128;4.566;2023-04-24T12:38:52;14.50;99.90
10388;DHT22;5240;51.128;4.566;2023-04-24T12:41:23;14.50;99.90
10388;DHT22;5240;51.128;4.566;2023-04-24T12:43:51;14.70;99.90
10388;DHT22;5240;51.128;4.566;2023-04-24T12:46:19;14.90;99.90
10388;DHT22;5240;51.128;4.566;2023-04-24T12:48:46;15.00;99.90
10388;DHT22;5240;51.128;4.566;2023-04-24T12:51:14;15.10;99.90
10388;DHT22;5240;51.128;4.566;2023-04-24T12:53:43;15.10;99.90
10388;DHT22;5240;51.128;4.566;2023-04-24T12:56:12;14.90;99.90
10388;DHT22;5240;51.128;4.566;2023-04-24T12:58:39;14.60;99.90
10388;DHT22;5240;51.128;4.566;2023-04-24T13:01:06;14.20;99.90
10388;DHT22;5240;51.128;4.566;2023-04-24T13:03:37;14.20;99.90
10388;DHT22;5240;51.128;4.566;2023-04-24T13:06:09;14.30;99.90
10388;DHT22;5240;51.128;4.566;2023-04-24T13:08:36;14.50;99.90
10388;DHT22;5240;51.128;4.566;2023-04-24T13:11:05;14.80;99.90
10388;DHT22;5240;51.128;4.566;2023-04-24T13:13:33;14.60;99.90
10388;DHT22;5240;51.128;4.566;2023-04-24T13:16:03;14.60;99.90
10388;DHT22;5240;51.128;4.566;2023-04-24T13:18:30;14.80;99.90
10388;DHT22;5240;51.128;4.566;2023-04-24T13:20:57;14.70;99.90
10388;DHT22;5240;51.128;4.566;2023-04-24T13:23:25;15.30;99.90
10388;DHT22;5240;51.128;4.566;2023-04-24T13:25:53;15.90;99.90
10388;DHT22;5240;51.128;4.566;2023-04-24T13:28:24;16.50;99.90
10388;DHT22;5240;51.128;4.566;2023-04-24T13:30:51;16.10;99.90
10388;DHT22;5240;51.128;4.566;2023-04-24T13:33:19;15.50;99.90
10388;DHT22;5240;51.128;4.566;2023-04-24T13:35:46;14.70;99.90
10388;DHT22;5240;51.128;4.566;2023-04-24T13:38:13;14.70;99.90
10388;DHT22;5240;51.128;4.566;2023-04-24T13:40:40;15.30;99.90
10388;DHT22;5240;51.128;4.566;2023-04-24T13:43:08;16.50;99.90
10388;DHT22;5240;51.128;4.566;2023-04-24T13:45:51;18.10;99.90
10388;DHT22;5240;51.128;4.566;2023-04-24T13:48:19;17.90;99.90
10388;DHT22;5240;51.128;4.566;2023-04-24T13:50:47;18.70;99.90
10388;DHT22;5240;51.128;4.566;2023-04-24T13:53:15;18.10;99.90
10388;DHT22;5240;51.128;4.566;2023-04-24T13:55:42;18.00;99.90
10388;DHT22;5240;51.128;4.566;2023-04-24T13:58:10;18.50;99.90
10388;DHT22;5240;51.128;4.566;2023-04-24T14:00:38;19.00;99.90
10388;DHT22;5240;51.128;4.566;2023-04-24T14:03:08;18.30;99.90
10388;DHT22;5240;51.128;4.566;2023-04-24T14:05:35;16.90;99.90
10388;DHT22;5240;51.128;4.566;2023-04-24T14:08:02;16.50;99.90
10388;DHT22;5240;51.128;4.566;2023-04-24T14:10:29;16.50;99.90
10388;DHT22;5240;51.128;4.566;2023-04-24T14:12:57;15.70;99.90
10388;DHT22;5240;51.128;4.566;2023-04-24T14:15:24;15.10;99.90
10388;DHT22;5240;51.128;4.566;2023-04-24T14:17:51;14.70;99.90
10388;DHT22;5240;51.128;4.566;2023-04-24T14:20:20;15.10;99.90
10388;DHT22;5240;51.128;4.566;2023-04-24T14:22:48;16.10;99.90
10388;DHT22;5240;51.128;4.566;2023-04-24T14:25:15;17.20;99.90
10388;DHT22;5240;51.128;4.566;2023-04-24T14:27:42;17.60;99.90
10388;DHT22;5240;51.128;4.566;2023-04-24T14:30:10;17.60;99.90
10388;DHT22;5240;51.128;4.566;2023-04-24T14:32:38;17.90;99.90
10388;DHT22;5240;51.128;4.566;2023-04-24T14:35:12;18.70;99.90
10388;DHT22;5240;51.128;4.566;2023-04-24T14:37:43;18.70;99.90
10388;DHT22;5240;51.128;4.566;2023-04-24T14:40:11;18.60;99.90
10388;DHT22;5240;51.128;4.566;2023-04-24T14:47:41;18.80;99.90
10388;DHT22;5240;51.128;4.566;2023-04-24T14:50:09;18.70;99.90
10388;DHT22;5240;51.128;4.566;2023-04-24T14:52:38;17.50;99.90
10388;DHT22;5240;51.128;4.566;2023-04-24T14:55:07;16.40;99.90
10388;DHT22;5240;51.128;4.566;2023-04-24T14:57:34;15.60;99.90
10388;DHT22;5240;51.128;4.566;2023-04-24T15:00:04;15.00;99.90
10388;DHT22;5240;51.128;4.566;2023-04-24T15:02:34;15.40;99.90
10388;DHT22;5240;51.128;4.566;2023-04-24T15:05:03;16.10;99.90
10388;DHT22;5240;51.128;4.566;2023-04-24T15:07:30;17.30;99.90
10388;DHT22;5240;51.128;4.566;2023-04-24T15:09:57;18.00;99.90
10388;DHT22;5240;51.128;4.566;2023-04-24T15:12:26;18.20;99.90
10388;DHT22;5240;51.128;4.566;2023-04-24T15:14:54;18.80;99.90
10388;DHT22;5240;51.128;4.566;2023-04-24T15:17:21;19.30;99.90
10388;DHT22;5240;51.128;4.566;2023-04-24T15:19:48;18.80;99.90
10388;DHT22;5240;51.128;4.566;2023-04-24T15:22:15;18.60;99.90
10388;DHT22;5240;51.128;4.566;2023-04-24T15:24:42;17.90;99.90
10388;DHT22;5240;51.128;4.566;2023-04-24T15:27:10;16.60;99.90
10388;DHT22;5240;51.128;4.566;2023-04-24T15:29:38;15.50;99.90
10388;DHT22;5240;51.128;4.566;2023-04-24T15:32:05;14.70;99.90
10388;DHT22;5240;51.128;4.566;2023-04-24T15:34:32;14.40;99.90
10388;DHT22;5240;51.128;4.566;2023-04-24T15:37:00;14.20;99.90
10388;DHT22;5240;51.128;4.566;2023-04-24T15:39:27;14.00;99.90
10388;DHT22;5240;51.128;4.566;2023-04-24T15:41:54;13.60;99.90
10388;DHT22;5240;51.128;4.566;2023-04-24T15:44:21;13.50;99.90
10388;DHT22;5240;51.128;4.566;2023-04-24T15:46:50;13.50;99.90
10388;DHT22;5240;51.128;4.566;2023-04-24T15:49:18;13.50;99.90
10388;DHT22;5240;51.128;4.566;2023-04-24T15:51:45;13.40;99.90
10388;DHT22;5240;51.128;4.566;2023-04-24T15:54:12;13.20;99.90
10388;DHT22;5240;51.128;4.566;2023-04-24T15:56:39;13.20;99.90
10388;DHT22;5240;51.128;4.566;2023-04-24T15:59:06;13.30;99.90
10388;DHT22;5240;51.128;4.566;2023-04-24T16:01:33;13.30;99.90
10388;DHT22;5240;51.128;4.566;2023-04-24T16:04:01;13.30;99.90
10388;DHT22;5240;51.128;4.566;2023-04-24T16:06:28;13.20;99.90
10388;DHT22;5240;51.128;4.566;2023-04-24T16:08:55;13.10;99.90
10388;DHT22;5240;51.128;4.566;2023-04-24T16:11:22;13.20;99.90
10388;DHT22;5240;51.128;4.566;2023-04-24T16:13:49;13.20;99.90
10388;DHT22;5240;51.128;4.566;2023-04-24T16:16:16;13.10;99.90
10388;DHT22;5240;51.128;4.566;2023-04-24T16:18:43;13.10;99.90
10388;DHT22;5240;51.128;4.566;2023-04-24T16:21:12;13.10;99.90
10388;DHT22;5240;51.128;4.566;2023-04-24T16:23:39;13.20;99.90
10388;DHT22;5240;51.128;4.566;2023-04-24T16:26:06;13.20;99.90
10388;DHT22;5240;51.128;4.566;2023-04-24T16:28:33;13.20;99.90
10388;DHT22;5240;51.128;4.566;2023-04-24T16:31:00;13.20;99.90
10388;DHT22;5240;51.128;4.566;2023-04-24T16:33:27;13.20;99.90
10388;DHT22;5240;51.128;4.566;2023-04-24T16:35:54;13.10;99.90
10388;DHT22;5240;51.128;4.566;2023-04-24T16:38:23;13.20;99.90
10388;DHT22;5240;51.128;4.566;2023-04-24T16:40:51;13.10;99.90
10388;DHT22;5240;51.128;4.566;2023-04-24T16:43:18;13.00;99.90
10388;DHT22;5240;51.128;4.566;2023-04-24T16:45:45;12.70;99.90
10388;DHT22;5240;51.128;4.566;2023-04-24T16:48:12;12.60;99.90
10388;DHT22;5240;51.128;4.566;2023-04-24T16:50:39;12.40;99.90
10388;DHT22;5240;51.128;4.566;2023-04-24T16:53:06;12.10;99.90
10388;DHT22;5240;51.128;4.566;2023-04-24T16:55:34;12.00;99.90
10388;DHT22;5240;51.128;4.566;2023-04-24T16:58:01;12.00;99.90
10388;DHT22;5240;51.128;4.566;2023-04-24T17:00:28;12.30;99.90
10388;DHT22;5240;51.128;4.566;2023-04-24T17:02:55;12.20;99.90
10388;DHT22;5240;51.128;4.566;2023-04-24T17:05:22;12.20;99.90
10388;DHT22;5240;51.128;4.566;2023-04-24T17:07:49;12.50;99.90
10388;DHT22;5240;51.128;4.566;2023-04-24T17:10:16;12.90;99.90
10388;DHT22;5240;51.128;4.566;2023-04-24T17:12:45;12.90;99.90
10388;DHT22;5240;51.128;4.566;2023-04-24T17:15:12;12.70;99.90
10388;DHT22;5240;51.128;4.566;2023-04-24T17:17:39;12.60;99.90
10388;DHT22;5240;51.128;4.566;2023-04-24T17:20:09;12.30;99.90
10388;DHT22;5240;51.128;4.566;2023-04-24T17:22:36;12.10;99.90
10388;DHT22;5240;51.128;4.566;2023-04-24T17:25:03;12.00;99.90
10388;DHT22;5240;51.128;4.566;2023-04-24T17:27:31;11.90;99.90
10388;DHT22;5240;51.128;4.566;2023-04-24T17:29:59;11.90;99.90
10388;DHT22;5240;51.128;4.566;2023-04-24T17:32:26;11.80;99.90
10388;DHT22;5240;51.128;4.566;2023-04-24T17:34:53;11.70;99.90
10388;DHT22;5240;51.128;4.566;2023-04-24T17:37:20;11.60;99.90
10388;DHT22;5240;51.128;4.566;2023-04-24T17:39:48;11.40;99.90
10388;DHT22;5240;51.128;4.566;2023-04-24T17:42:15;11.50;99.90
10388;DHT22;5240;51.128;4.566;2023-04-24T17:44:42;11.50;99.90
10388;DHT22;5240;51.128;4.566;2023-04-24T17:47:10;11.40;99.90
10388;DHT22;5240;51.128;4.566;2023-04-24T17:49:38;11.50;99.90
10388;DHT22;5240;51.128;4.566;2023-04-24T17:52:06;11.50;99.90
10388;DHT22;5240;51.128;4.566;2023-04-24T17:54:33;11.50;99.90
10388;DHT22;5240;51.128;4.566;2023-04-24T17:57:00;11.50;99.90
10388;DHT22;5240;51.128;4.566;2023-04-24T17:59:27;11.40;99.90
10388;DHT22;5240;51.128;4.566;2023-04-24T18:01:55;11.40;99.90
10388;DHT22;5240;51.128;4.566;2023-04-24T18:04:23;11.30;99.90
10388;DHT22;5240;51.128;4.566;2023-04-24T18:06:51;11.30;99.90
10388;DHT22;5240;51.128;4.566;2023-04-24T18:09:18;11.20;99.90
10388;DHT22;5240;51.128;4.566;2023-04-24T18:11:45;11.10;99.90
10388;DHT22;5240;51.128;4.566;2023-04-24T18:14:13;11.00;99.90
10388;DHT22;5240;51.128;4.566;2023-04-24T18:16:40;10.90;99.90
10388;DHT22;5240;51.128;4.566;2023-04-24T18:19:08;10.90;99.90
10388;DHT22;5240;51.128;4.566;2023-04-24T18:21:36;10.90;99.90
10388;DHT22;5240;51.128;4.566;2023-04-24T18:24:04;10.80;99.90
10388;DHT22;5240;51.128;4.566;2023-04-24T18:26:31;10.80;99.90
10388;DHT22;5240;51.128;4.566;2023-04-24T18:28:58;10.80;99.90
10388;DHT22;5240;51.128;4.566;2023-04-24T18:31:25;10.70;99.90
10388;DHT22;5240;51.128;4.566;2023-04-24T18:33:52;10.70;99.90
10388;DHT22;5240;51.128;4.566;2023-04-24T18:36:20;10.70;99.90
10388;DHT22;5240;51.128;4.566;2023-04-24T18:38:48;10.60;99.90
10388;DHT22;5240;51.128;4.566;2023-04-24T18:41:15;10.70;99.90
10388;DHT22;5240;51.128;4.566;2023-04-24T18:43:42;10.70;99.90
10388;DHT22;5240;51.128;4.566;2023-04-24T18:46:10;10.60;99.90
10388;DHT22;5240;51.128;4.566;2023-04-24T18:48:37;10.60;99.90
10388;DHT22;5240;51.128;4.566;2023-04-24T18:51:04;10.50;99.90
10388;DHT22;5240;51.128;4.566;2023-04-24T18:53:31;10.50;99.90
10388;DHT22;5240;51.128;4.566;2023-04-24T18:55:59;10.50;99.90
10388;DHT22;5240;51.128;4.566;2023-04-24T18:58:26;10.60;99.90
10388;DHT22;5240;51.128;4.566;2023-04-24T19:00:53;10.60;99.90
10388;DHT22;5240;51.128;4.566;2023-04-24T19:03:21;10.50;99.90
10388;DHT22;5240;51.128;4.566;2023-04-24T19:05:48;10.40;99.90
10388;DHT22;5240;51.128;4.566;2023-04-24T19:08:15;10.40;99.90
10388;DHT22;5240;51.128;4.566;2023-04-24T19:10:42;10.40;99.90
10388;DHT22;5240;51.128;4.566;2023-04-24T19:13:10;10.30;99.90
10388;DHT22;5240;51.128;4.566;2023-04-24T19:15:37;10.30;99.90
10388;DHT22;5240;51.128;4.566;2023-04-24T19:18:04;10.20;99.90
10388;DHT22;5240;51.128;4.566;2023-04-24T19:20:33;10.20;99.90
10388;DHT22;5240;51.128;4.566;2023-04-24T19:23:00;10.20;99.90
10388;DHT22;5240;51.128;4.566;2023-04-24T19:25:27;10.20;99.90
10388;DHT22;5240;51.128;4.566;2023-04-24T19:27:54;10.20;99.90
10388;DHT22;5240;51.128;4.566;2023-04-24T19:30:23;10.10;99.90
10388;DHT22;5240;51.128;4.566;2023-04-24T19:32:50;10.10;99.90
10388;DHT22;5240;51.128;4.566;2023-04-24T19:35:17;10.10;99.90
10388;DHT22;5240;51.128;4.566;2023-04-24T19:37:44;10.20;99.90
10388;DHT22;5240;51.128;4.566;2023-04-24T19:40:11;10.20;99.90
10388;DHT22;5240;51.128;4.566;2023-04-24T19:42:38;10.20;99.90
10388;DHT22;5240;51.128;4.566;2023-04-24T19:45:06;10.20;99.90
10388;DHT22;5240;51.128;4.566;2023-04-24T19:47:35;10.10;99.90
10388;DHT22;5240;51.128;4.566;2023-04-24T19:50:02;10.00;99.90
10388;DHT22;5240;51.128;4.566;2023-04-24T19:52:29;10.00;99.90
10388;DHT22;5240;51.128;4.566;2023-04-24T19:54:56;9.90;99.90
10388;DHT22;5240;51.128;4.566;2023-04-24T19:57:23;9.90;99.90
10388;DHT22;5240;51.128;4.566;2023-04-24T19:59:50;9.90;99.90
10388;DHT22;5240;51.128;4.566;2023-04-24T20:02:17;9.80;99.90
10388;DHT22;5240;51.128;4.566;2023-04-24T20:04:45;9.90;99.90
10388;DHT22;5240;51.128;4.566;2023-04-24T20:07:12;9.80;99.90
10388;DHT22;5240;51.128;4.566;2023-04-24T20:09:39;9.80;99.90
10388;DHT22;5240;51.128;4.566;2023-04-24T20:12:06;9.70;99.90
10388;DHT22;5240;51.128;4.566;2023-04-24T20:14:34;9.70;99.90
10388;DHT22;5240;51.128;4.566;2023-04-24T20:17:01;9.70;99.90
10388;DHT22;5240;51.128;4.566;2023-04-24T20:19:28;9.70;99.90
10388;DHT22;5240;51.128;4.566;2023-04-24T20:21:58;9.70;99.90
10388;DHT22;5240;51.128;4.566;2023-04-24T20:24:25;9.80;99.90
10388;DHT22;5240;51.128;4.566;2023-04-24T20:26:52;9.80;99.90
10388;DHT22;5240;51.128;4.566;2023-04-24T20:29:19;9.70;99.90
10388;DHT22;5240;51.128;4.566;2023-04-24T20:31:46;9.70;99.90
10388;DHT22;5240;51.128;4.566;2023-04-24T20:34:13;9.70;99.90
10388;DHT22;5240;51.128;4.566;2023-04-24T20:36:40;9.70;99.90
10388;DHT22;5240;51.128;4.566;2023-04-24T20:39:09;9.70;99.90
10388;DHT22;5240;51.128;4.566;2023-04-24T20:41:36;9.70;99.90
10388;DHT22;5240;51.128;4.566;2023-04-24T20:44:04;9.70;99.90
10388;DHT22;5240;51.128;4.566;2023-04-24T20:46:31;9.60;99.90
10388;DHT22;5240;51.128;4.566;2023-04-24T20:48:59;9.60;99.90
10388;DHT22;5240;51.128;4.566;2023-04-24T20:51:27;9.60;99.90
10388;DHT22;5240;51.128;4.566;2023-04-24T20:53:54;9.60;99.90
10388;DHT22;5240;51.128;4.566;2023-04-24T20:56:23;9.70;99.90
10388;DHT22;5240;51.128;4.566;2023-04-24T20:58:50;9.70;99.90
10388;DHT22;5240;51.128;4.566;2023-04-24T21:01:17;9.70;99.90
10388;DHT22;5240;51.128;4.566;2023-04-24T21:03:44;9.70;99.90
10388;DHT22;5240;51.128;4.566;2023-04-24T21:06:11;9.70;99.90
10388;DHT22;5240;51.128;4.566;2023-04-24T21:08:38;9.70;99.90
10388;DHT22;5240;51.128;4.566;2023-04-24T21:11:05;9.70;99.90
10388;DHT22;5240;51.128;4.566;2023-04-24T21:13:34;9.70;99.90
10388;DHT22;5240;51.128;4.566;2023-04-24T21:16:00;9.70;99.90
10388;DHT22;5240;51.128;4.566;2023-04-24T21:18:28;9.70;99.90
10388;DHT22;5240;51.128;4.566;2023-04-24T21:20:55;9.70;99.90
10388;DHT22;5240;51.128;4.566;2023-04-24T21:23:22;9.60;99.90
10388;DHT22;5240;51.128;4.566;2023-04-24T21:25:50;9.70;99.90
10388;DHT22;5240;51.128;4.566;2023-04-24T21:28:17;9.60;99.90
10388;DHT22;5240;51.128;4.566;2023-04-24T21:30:46;9.60;99.90
10388;DHT22;5240;51.128;4.566;2023-04-24T21:33:13;9.70;99.90
10388;DHT22;5240;51.128;4.566;2023-04-24T21:35:40;9.70;99.90
10388;DHT22;5240;51.128;4.566;2023-04-24T21:38:07;9.80;99.90
10388;DHT22;5240;51.128;4.566;2023-04-24T21:40:34;9.80;99.90
10388;DHT22;5240;51.128;4.566;2023-04-24T21:43:01;9.80;99.90
10388;DHT22;5240;51.128;4.566;2023-04-24T21:45:28;9.90;99.90
10388;DHT22;5240;51.128;4.566;2023-04-24T21:47:57;9.90;99.90
10388;DHT22;5240;51.128;4.566;2023-04-24T21:50:26;9.70;99.90
10388;DHT22;5240;51.128;4.566;2023-04-24T21:52:53;9.70;99.90
10388;DHT22;5240;51.128;4.566;2023-04-24T21:55:20;9.70;99.90
10388;DHT22;5240;51.128;4.566;2023-04-24T21:57:47;9.70;99.90
10388;DHT22;5240;51.128;4.566;2023-04-24T22:00:14;9.60;99.90
10388;DHT22;5240;51.128;4.566;2023-04-24T22:02:41;9.60;99.90
10388;DHT22;5240;51.128;4.566;2023-04-24T22:05:10;9.40;99.90
10388;DHT22;5240;51.128;4.566;2023-04-24T22:07:41;9.30;99.90
10388;DHT22;5240;51.128;4.566;2023-04-24T22:10:11;9.30;99.90
10388;DHT22;5240;51.128;4.566;2023-04-24T22:12:39;9.20;99.90
10388;DHT22;5240;51.128;4.566;2023-04-24T22:15:07;9.20;99.90
10388;DHT22;5240;51.128;4.566;2023-04-24T22:17:34;9.10;99.90
10388;DHT22;5240;51.128;4.566;2023-04-24T22:20:02;9.10;99.90
10388;DHT22;5240;51.128;4.566;2023-04-24T22:22:33;9.10;99.90
10388;DHT22;5240;51.128;4.566;2023-04-24T22:25:00;9.10;99.90
10388;DHT22;5240;51.128;4.566;2023-04-24T22:27:27;9.00;99.90
10388;DHT22;5240;51.128;4.566;2023-04-24T22:29:54;8.90;99.90
10388;DHT22;5240;51.128;4.566;2023-04-24T22:32:22;8.90;99.90
10388;DHT22;5240;51.128;4.566;2023-04-24T22:34:49;9.00;99.90
10388;DHT22;5240;51.128;4.566;2023-04-24T22:37:16;9.00;99.90
10388;DHT22;5240;51.128;4.566;2023-04-24T22:39:44;8.90;99.90
10388;DHT22;5240;51.128;4.566;2023-04-24T22:42:11;8.90;99.90
10388;DHT22;5240;51.128;4.566;2023-04-24T22:44:38;8.90;99.90
10388;DHT22;5240;51.128;4.566;2023-04-24T22:49:34;8.90;99.90
10388;DHT22;5240;51.128;4.566;2023-04-24T22:52:01;8.90;99.90
10388;DHT22;5240;51.128;4.566;2023-04-24T22:54:30;8.90;99.90
10388;DHT22;5240;51.128;4.566;2023-04-24T22:57:01;8.90;99.90
10388;DHT22;5240;51.128;4.566;2023-04-24T22:59:28;8.80;99.90
10388;DHT22;5240;51.128;4.566;2023-04-24T23:01:55;8.90;99.90
10388;DHT22;5240;51.128;4.566;2023-04-24T23:04:24;8.90;99.90
10388;DHT22;5240;51.128;4.566;2023-04-24T23:06:51;8.90;99.90
10388;DHT22;5240;51.128;4.566;2023-04-24T23:09:18;9.00;99.90
10388;DHT22;5240;51.128;4.566;2023-04-24T23:11:45;9.10;99.90
10388;DHT22;5240;51.128;4.566;2023-04-24T23:14:14;9.20;99.90
10388;DHT22;5240;51.128;4.566;2023-04-24T23:16:41;9.20;99.90
10388;DHT22;5240;51.128;4.566;2023-04-24T23:19:09;9.20;99.90
10388;DHT22;5240;51.128;4.566;2023-04-24T23:21:39;9.30;99.90
10388;DHT22;5240;51.128;4.566;2023-04-24T23:24:06;9.20;99.90
10388;DHT22;5240;51.128;4.566;2023-04-24T23:26:33;9.10;99.90
10388;DHT22;5240;51.128;4.566;2023-04-24T23:29:01;9.10;99.90
10388;DHT22;5240;51.128;4.566;2023-04-24T23:31:30;9.10;99.90
10388;DHT22;5240;51.128;4.566;2023-04-24T23:33:57;9.10;99.90
10388;DHT22;5240;51.128;4.566;2023-04-24T23:36:24;9.20;99.90
10388;DHT22;5240;51.128;4.566;2023-04-24T23:38:52;9.10;99.90
10388;DHT22;5240;51.128;4.566;2023-04-24T23:41:19;9.00;99.90
10388;DHT22;5240;51.128;4.566;2023-04-24T23:43:46;8.90;99.90
10388;DHT22;5240;51.128;4.566;2023-04-24T23:46:13;8.90;99.90
10388;DHT22;5240;51.128;4.566;2023-04-24T23:48:41;9.00;99.90
10388;DHT22;5240;51.128;4.566;2023-04-24T23:51:08;8.90;99.90
10388;DHT22;5240;51.128;4.566;2023-04-24T23:53:35;8.90;99.90
10388;DHT22;5240;51.128;4.566;2023-04-24T23:56:02;9.00;99.90
10388;DHT22;5240;51.128;4.566;2023-04-24T23:58:30;9.00;99.90
